Home > Products > Valid Products > TAF

000
FTUS41 KPHI 311100
TAFPNE
TAF
KPNE 311131Z 3112/0112 35006KT P6SM FEW040
     FM311400 03006KT P6SM SCT050
     FM311800 05006KT P6SM BKN035
     FM010600 02006KT P6SM OVC025
     FM011000 02010G18KT 5SM -RA OVC015=



000
FTUS41 KPHI 311100
TAFABE
TAF
KABE 311131Z 3112/0112 VRB03KT P6SM SCT050
     FM311500 06004KT P6SM BKN040
     FM010800 04003KT P6SM -SHRA OVC025
     FM011100 04010G18KT 5SM -RA OVC020=



000
FTUS41 KPHI 311100
TAFACY
TAF
KACY 311131Z 3112/0112 35005KT P6SM SCT040
     FM311400 03006KT P6SM SCT040
     FM311800 05008KT P6SM BKN035
     FM010200 03006KT P6SM OVC025
     FM010800 02010G20KT 3SM -RA OVC010=



000
FTUS41 KPHI 311100
TAFTTN
TAF
KTTN 311131Z 3112/0112 36005KT P6SM SCT035
     FM311600 04006KT P6SM BKN040
     FM010600 06006KT P6SM OVC025
     FM011000 06010G18KT 5SM -RA OVC015=



000
FTUS41 KPHI 311100
TAFMIV
TAF
KMIV 311131Z 3112/0112 36003KT P6SM SCT050
     FM311400 03004KT P6SM SCT040
     FM311700 05006KT P6SM BKN035
     FM010300 03006KT P6SM OVC025
     FM010800 02010G18KT 3SM -RA OVC010=



000
FTUS41 KPHI 311100
TAFRDG
TAF
KRDG 311131Z 3112/0112 VRB03KT P6SM SCT050
     FM311400 03004KT P6SM BKN040
     FM010800 01006KT P6SM -SHRA OVC025
     FM011100 01008G16KT 5SM -RA OVC020=



000
FTUS41 KPHI 311100
TAFPHL
TAF
KPHL 311131Z 3112/0118 36008KT P6SM FEW050
     FM311400 02008KT P6SM SCT050
     FM311800 04008KT P6SM BKN035
     FM010600 03009KT P6SM -SHRA OVC025
     FM011000 03010G18KT 5SM -RA OVC015
     FM011500 03015G25KT 5SM -RA OVC015=



000
FTUS41 KPHI 311100
TAFILG
TAF
KILG 311131Z 3112/0112 36005KT P6SM SCT050
     FM311400 03006KT P6SM SCT050
     FM311800 05006KT P6SM BKN035
     FM010400 02006KT P6SM OVC025
     FM011000 02010G18KT 5SM -RA OVC015=



000
FTUS41 KPHI 310900 AAA
TAFPHL
TAF AMD
KPHL 310905Z 3109/0112 35003KT P6SM FEW060
     FM311100 02004KT P6SM FEW060
     FM311600 04006KT P6SM SCT050
     FM312000 05008KT P6SM BKN035
     FM010400 02009KT P6SM OVC025
     FM011000 02010KT P6SM -SHRA OVC020=



000
FTUS41 KPHI 310500
TAFPHL
TAF
KPHL 310530Z 3106/0112 33006KT P6SM SKC
     FM310800 02004KT P6SM SKC
     FM311600 04006KT P6SM SCT050
     FM312000 05008KT P6SM BKN035
     FM010400 02009KT P6SM OVC025
     FM011000 02010KT P6SM -SHRA OVC020=



000
FTUS41 KPHI 310500
TAFRDG
TAF
KRDG 310530Z 3106/0106 VRB03KT P6SM SCT050
     FM311600 08004KT P6SM BKN040
     FM010500 04004KT P6SM OVC025=



000
FTUS41 KPHI 310500
TAFPNE
TAF
KPNE 310530Z 3106/0106 VRB03KT P6SM SKC
     FM310800 02004KT P6SM SKC
     FM311600 06006KT P6SM SCT050
     FM312000 05006KT P6SM BKN035
     FM010400 02006KT P6SM OVC025=



000
FTUS41 KPHI 310500
TAFTTN
TAF
KTTN 310530Z 3106/0106 32003KT P6SM SKC
     FM310800 02004KT P6SM SKC
     FM311600 06006KT P6SM SCT050
     FM312000 04006KT P6SM BKN035
     FM010400 02006KT P6SM OVC025=



000
FTUS41 KPHI 310500
TAFACY
TAF
KACY 310530Z 3106/0106 VRB03KT P6SM SKC
     FM311400 03006KT P6SM SCT040
     FM311800 04008KT P6SM BKN035
     FM010200 02006KT P6SM OVC025=



000
FTUS41 KPHI 310500
TAFILG
TAF
KILG 310530Z 3106/0106 34004KT P6SM FEW050
     FM310800 01004KT P6SM SKC
     FM311600 05006KT P6SM SCT050
     FM312000 06006KT P6SM BKN035
     FM010400 02006KT P6SM OVC025=



000
FTUS41 KPHI 310500
TAFMIV
TAF
KMIV 310530Z 3106/0106 VRB03KT P6SM SKC
     FM311400 05004KT P6SM SCT040
     FM311900 05006KT P6SM BKN035
     FM010300 03006KT P6SM OVC025=



000
FTUS41 KPHI 310500
TAFABE
TAF
KABE 310530Z 3106/0106 VRB03KT P6SM SCT050
     FM311700 08004KT P6SM BKN040
     FM010500 04003KT P6SM OVC025=



000
FTUS41 KPHI 302300
TAFPNE
TAF
KPNE 302336Z 3100/3124 35004KT P6SM FEW050
     FM310800 02004KT P6SM SCT250
     FM311600 06006KT P6SM SCT050
     FM312000 05006KT P6SM BKN040=



000
FTUS41 KPHI 302300
TAFTTN
TAF
KTTN 302336Z 3100/3124 VRB03KT P6SM FEW050
     FM310800 03004KT P6SM SCT250
     FM311600 06006KT P6SM SCT050
     FM312000 04006KT P6SM BKN040=



000
FTUS41 KPHI 302300
TAFPHL
TAF
KPHL 302336Z 3100/0106 35006KT P6SM FEW050
     FM310800 02004KT P6SM SCT250
     FM311600 05006KT P6SM SCT050
     FM312000 04008KT P6SM BKN040=



000
FTUS41 KPHI 302300
TAFABE
TAF
KABE 302336Z 3100/3124 VRB03KT P6SM SCT050
     FM311700 06004KT P6SM BKN040=



000
FTUS41 KPHI 302300
TAFILG
TAF
KILG 302336Z 3100/3124 34004KT P6SM FEW050
     FM310800 01004KT P6SM SCT250
     FM311600 04006KT P6SM SCT050
     FM312000 04006KT P6SM BKN040=



000
FTUS41 KPHI 302300
TAFACY
TAF
KACY 302336Z 3100/3124 VRB03KT P6SM SCT250
     FM311400 03006KT P6SM SCT040
     FM311800 04008KT P6SM BKN040=



000
FTUS41 KPHI 302300
TAFMIV
TAF
KMIV 302336Z 3100/3124 VRB03KT P6SM SCT250
     FM311400 04004KT P6SM SCT040
     FM311900 04006KT P6SM BKN040=



000
FTUS41 KPHI 302300
TAFRDG
TAF
KRDG 302336Z 3100/3124 VRB03KT P6SM SCT050
     FM311600 08004KT P6SM BKN040=



000
FTUS41 KPHI 302100 AAA
TAFPHL
TAF AMD
KPHL 302101Z 3021/3124 34008KT P6SM SCT050
     FM310300 02003KT P6SM SKC
     FM311500 04004KT P6SM SCT040
     FM312100 05007KT P6SM BKN040=



000
FTUS41 KPHI 301700
TAFPNE
TAF
KPNE 301720Z 3018/3118 33008KT P6SM SCT040
     FM310300 02003KT P6SM SKC
     FM311500 05004KT P6SM SCT040=



000
FTUS41 KPHI 301700
TAFPHL
TAF
KPHL 301720Z 3018/3124 34008KT P6SM SCT040
     FM310300 02003KT P6SM SKC
     FM311500 04004KT P6SM SCT040
     FM312100 05007KT P6SM BKN040=



000
FTUS41 KPHI 301700
TAFTTN
TAF
KTTN 301720Z 3018/3118 31008KT P6SM SCT040
     FM310300 02002KT P6SM SKC
     FM311500 06004KT P6SM SCT040=



000
FTUS41 KPHI 301700
TAFMIV
TAF
KMIV 301720Z 3018/3118 34008KT P6SM SCT040
     FM310300 36002KT P6SM SKC
     FM311500 04006KT P6SM SCT040=



000
FTUS41 KPHI 301700
TAFACY
TAF
KACY 301720Z 3018/3118 34008KT P6SM SCT040
     FM310300 36002KT P6SM SKC
     FM311500 04006KT P6SM SCT040=



000
FTUS41 KPHI 301700
TAFRDG
TAF
KRDG 301720Z 3018/3118 33005KT P6SM BKN035
     FM310300 VRB02KT P6SM SKC
     FM311500 06004KT P6SM SCT040=



000
FTUS41 KPHI 301700
TAFABE
TAF
KABE 301720Z 3018/3118 31008KT P6SM BKN035
     FM310300 02002KT P6SM SKC
     FM311500 06004KT P6SM SCT040=



000
FTUS41 KPHI 301700
TAFILG
TAF
KILG 301720Z 3018/3118 34008KT P6SM SCT040
     FM310300 01004KT P6SM SKC
     FM311500 05006KT P6SM SCT040=



000
FTUS41 KPHI 301500 AAB
TAFABE
TAF AMD
KABE 301539Z 3016/3112 32008KT P6SM BKN035
     FM310300 VRB02KT P6SM SCT250=



000
FTUS41 KPHI 301500 AAC
TAFRDG
TAF AMD
KRDG 301539Z 3016/3112 33005KT P6SM BKN035
     FM310300 VRB02KT P6SM SCT250=



000
FTUS41 KPHI 301400 AAB
TAFRDG
TAF AMD
KRDG 301438Z 3015/3112 31005KT P6SM SCT050
     FM310300 VRB02KT P6SM SCT250=



000
FTUS41 KPHI 301400 AAA
TAFPHL
TAF AMD
KPHL 301436Z 3015/3118 35013KT P6SM SCT050
     FM310300 02003KT P6SM SCT250=



000
FTUS41 KPHI 301300 AAB
TAFACY
TAF AMD
KACY 301324Z 3013/3112 32006KT P6SM BKN070
     FM301500 33010KT P6SM SCT050
     FM310500 VRB02KT P6SM SCT250=



000
FTUS41 KPHI 301300 AAB
TAFMIV
TAF AMD
KMIV 301324Z 3013/3112 30005KT P6SM BKN070
     FM301600 32008KT P6SM SCT050
     FM310500 VRB02KT P6SM SCT250=



000
FTUS41 KPHI 301300 AAB
TAFTTN
TAF AMD
KTTN 301321Z 3013/3112 32006KT P6SM SCT050
     FM301600 34008KT P6SM SCT050
     FM310400 01003KT P6SM SCT250=



000
FTUS41 KPHI 301300 AAA
TAFABE
TAF AMD
KABE 301321Z 3013/3112 30004KT P6SM SKC
     FM301600 32008KT P6SM BKN050
     FM310300 VRB02KT P6SM SCT250=



000
FTUS41 KPHI 301200 AAA
TAFMIV
TAF AMD
KMIV 301239Z 3013/3112 VRB03KT P6SM SCT001
      TEMPO 3013/3014 4SM BR
     FM301400 31005KT P6SM FEW050
     FM310500 VRB02KT P6SM SCT250=



000
FTUS41 KPHI 301200 AAA
TAFACY
TAF AMD
KACY 301239Z 3013/3112 VRB03KT P6SM SCT002
      TEMPO 3013/3014 4SM BR
     FM301500 33010KT P6SM SCT050
     FM310500 VRB02KT P6SM SCT250=



000
FTUS41 KPHI 301200 AAA
TAFTTN
TAF AMD
KTTN 301231Z 3013/3112 30003KT 4SM BR FEW001
      TEMPO 3013/3014 2SM BR
     FM301400 33003KT P6SM SCT005
      TEMPO 3014/3016 4SM BR
     FM301600 34008KT P6SM SCT050
     FM310400 01003KT P6SM SCT250=



000
FTUS41 KPHI 301200 AAA
TAFRDG
TAF AMD
KRDG 301220Z 3012/3112 VRB03KT P6SM FEW002
      TEMPO 3012/3014 6SM BR SCT002
     FM301400 30003KT P6SM SCT005
     FM301600 32008KT P6SM BKN050
     FM310300 VRB02KT P6SM SCT250=



000
FTUS41 KPHI 301100 CCA
TAFACY
TAF COR
KACY 301130Z 3012/3112 VRB03KT 2SM BR SCT002
      TEMPO 3012/3014 1/4SM FG VV002
     FM301500 33010KT P6SM SCT050
     FM310500 VRB02KT P6SM SCT250=



000
FTUS41 KPHI 301100
TAFILG
TAF
KILG 301122Z 3012/3112 31004KT P6SM SKC
      TEMPO 3012/3013 6SM BR
     FM301600 32010KT P6SM SCT050
     FM310700 01003KT P6SM SCT250=



000
FTUS41 KPHI 301100
TAFRDG
TAF
KRDG 301122Z 3012/3112 VRB03KT 3/4SM BR OVC002
      TEMPO 3012/3014 2SM BR BKN005
     FM301400 30003KT 5SM BR SCT005
      TEMPO 3014/3016 2SM BR BKN005
     FM301600 32008KT P6SM BKN050
     FM310300 VRB02KT P6SM SCT250=



000
FTUS41 KPHI 301100
TAFTTN
TAF
KTTN 301122Z 3012/3112 30003KT 1/4SM FG OVC001
      TEMPO 3012/3014 1SM BR BKN005
     FM301400 33003KT 3SM BR SCT005
      TEMPO 3014/3016 1SM BR BKN005
     FM301600 34008KT P6SM SCT050
     FM310400 01003KT P6SM SCT250=



000
FTUS41 KPHI 301100
TAFABE
TAF
KABE 301122Z 3012/3112 VRB03KT 2SM BR SCT001
      TEMPO 3012/3013 6SM BR SKC
     FM301300 30004KT P6SM SKC
      TEMPO 3013/3014 5SM BR SCT005
     FM301600 32008KT P6SM BKN050
     FM310300 VRB02KT P6SM SCT250=



000
FTUS41 KPHI 301100
TAFPHL
TAF
KPHL 301122Z 3012/3118 32004KT P6SM SKC
      TEMPO 3012/3013 6SM BR
     FM301400 32010KT P6SM SCT050
     FM310700 01003KT P6SM SCT250=



000
FTUS41 KPHI 301100
TAFMIV
TAF
KMIV 301122Z 3012/3112 VRB03KT 1/2SM FG BKN001
      TEMPO 3012/3014 1SM BR BKN005
     FM301400 30003KT 3SM BR SCT005
      TEMPO 3014/3016 1SM BR BKN005
     FM301600 32006KT P6SM FEW050
     FM310500 VRB02KT P6SM SCT250=



000
FTUS41 KPHI 301100
TAFACY
TAF
KACY 301122Z 3012/3112 VRB03KT 3SM BR SCT002
      TEMPO 3012/3014 1SM BR BKN002
     FM301500 33010KT P6SM SCT050
     FM310500 VRB02KT P6SM SCT250=



000
FTUS41 KPHI 301100
TAFPNE
TAF
KPNE 301122Z 3012/3112 31005KT P6SM SKC
      TEMPO 3012/3013 6SM BR
     FM301400 32008KT P6SM SCT050
     FM310600 01003KT P6SM SCT250=



000
FTUS41 KPHI 301000 AAB
TAFPNE
TAF AMD
KPNE 301028Z 3010/3106 30004KT 5SM BR SKC
      TEMPO 3010/3013 2SM BR SCT002
     FM301500 32008KT P6SM SCT050
     FM310400 01003KT P6SM SCT250=



000
FTUS41 KPHI 301000 AAB
TAFILG
TAF AMD
KILG 301026Z 3010/3106 28003KT 6SM BR SKC
      TEMPO 3010/3013 3SM BR SCT005
     FM301600 32010KT P6SM SCT050
     FM310500 01003KT P6SM SCT250=



000
FTUS41 KPHI 300800 AAA
TAFPHL
TAF AMD
KPHL 300845Z 3009/3112 26003KT 6SM BR SKC
      TEMPO 3009/3012 3SM BR
     FM301400 32010KT P6SM SCT050
     FM310500 01003KT P6SM SCT250=



000
FTUS41 KPHI 300800 AAA
TAFABE
TAF AMD
KABE 300845Z 3009/3106 VRB03KT 1/4SM FG OVC001
      TEMPO 3009/3013 1SM BR BKN005
     FM301300 30004KT 3SM BR SCT005
      TEMPO 3013/3015 1SM BR BKN005
     FM301500 32008KT P6SM SCT050
     FM310300 VRB02KT P6SM SCT250=



000
FTUS41 KPHI 300800 AAA
TAFPNE
TAF AMD
KPNE 300845Z 3009/3106 30004KT 3SM BR SCT002
      TEMPO 3009/3013 1SM BR BKN002
     FM301500 32008KT P6SM SCT050
     FM310400 01003KT P6SM SCT250=



000
FTUS41 KPHI 300800 AAB
TAFMIV
TAF AMD
KMIV 300845Z 3009/3106 VRB03KT 1SM BR BKN005
      TEMPO 3009/3013 1/2SM FG BKN002
     FM301300 30003KT 3SM BR SCT005
      TEMPO 3013/3015 6SM BR
     FM301500 32006KT P6SM FEW050
     FM310300 VRB02KT P6SM SCT250=



000
FTUS41 KPHI 300800 AAA
TAFILG
TAF AMD
KILG 300845Z 3009/3106 VRB03KT 1/4SM FG OVC001
      TEMPO 3009/3013 1SM BR BKN005
     FM301300 30003KT 3SM BR SCT005
      TEMPO 3013/3015 1SM BR BKN005
     FM301600 32010KT P6SM SCT050
     FM310500 01003KT P6SM SCT250=



000
FTUS41 KPHI 300800 AAA
TAFTTN
TAF AMD
KTTN 300845Z 3009/3106 30003KT 1/4SM FG OVC001
      TEMPO 3009/3013 1SM BR BKN005
     FM301300 33003KT 3SM BR SCT005
      TEMPO 3013/3015 1SM BR BKN005
     FM301500 34008KT P6SM SCT050
     FM310200 01003KT P6SM SCT250=



000
FTUS41 KPHI 300800 AAB
TAFACY
TAF AMD
KACY 300845Z 3009/3106 VRB03KT 2SM BR BKN003
      TEMPO 3009/3013 1/2SM FG BKN001
     FM301500 33010KT P6SM SCT050
     FM310300 VRB02KT P6SM SCT250=



000
FTUS41 KPHI 300800 AAA
TAFRDG
TAF AMD
KRDG 300845Z 3009/3106 VRB03KT 1/2SM FG OVC002
      TEMPO 3009/3013 1SM BR BKN005
     FM301300 30003KT 3SM BR SCT005
      TEMPO 3013/3015 1SM BR BKN005
     FM301500 32008KT P6SM SCT050
     FM310300 VRB02KT P6SM SCT250=



000
FTUS41 KPHI 300700 AAA
TAFACY
TAF AMD
KACY 300714Z 3007/3106 VRB03KT 3SM BR SKC
      TEMPO 3007/3011 1SM BR BKN003
     FM301500 33010KT P6SM SCT050
     FM310300 VRB02KT P6SM SCT250=



000
FTUS41 KPHI 300700 AAA
TAFMIV
TAF AMD
KMIV 300703Z 3007/3106 VRB03KT 3SM BR SKC
      TEMPO 3007/3011 1SM BR BKN002
     FM301400 32006KT P6SM FEW050
     FM310300 VRB02KT P6SM SCT250=



000
FTUS41 KPHI 300500
TAFPHL
TAF
KPHL 300528Z 3006/3112 32003KT 5SM BR SKC
      TEMPO 3007/3011 2SM BR BKN008
     FM301400 32010KT P6SM SCT050
     FM310500 01003KT P6SM SCT250=



000
FTUS41 KPHI 300500
TAFRDG
TAF
KRDG 300528Z 3006/3106 00000KT 1SM BR BKN004
      TEMPO 3006/3010 1/4SM FG BKN002
     FM301300 30003KT 3SM BR SCT005
      TEMPO 3013/3015 6SM BR
     FM301500 32008KT P6SM SCT050
     FM310300 VRB02KT P6SM SCT250=



000
FTUS41 KPHI 300500
TAFTTN
TAF
KTTN 300528Z 3006/3106 32003KT 1SM BR BKN004
      TEMPO 3006/3010 1/4SM FG BKN001
     FM301300 33003KT 3SM BR SCT005
      TEMPO 3013/3015 6SM BR
     FM301500 34008KT P6SM SCT050
     FM310200 01003KT P6SM SCT250=



000
FTUS41 KPHI 300500
TAFILG
TAF
KILG 300528Z 3006/3106 29003KT 1SM BR BKN005
      TEMPO 3006/3010 1/4SM FG BKN002
     FM301300 30003KT 3SM BR SCT005
      TEMPO 3013/3015 6SM BR
     FM301600 32010KT P6SM SCT050
     FM310500 01003KT P6SM SCT250=



000
FTUS41 KPHI 300500
TAFPNE
TAF
KPNE 300528Z 3006/3106 29003KT 1SM BR BKN005
      TEMPO 3006/3010 1/2SM FG BKN002
     FM301500 32008KT P6SM SCT050
     FM310400 01003KT P6SM SCT250=



000
FTUS41 KPHI 300500
TAFACY
TAF
KACY 300528Z 3006/3106 29003KT P6SM SKC
      TEMPO 3007/3011 3SM BR
     FM301500 33010KT P6SM SCT050
     FM310300 VRB02KT P6SM SCT250=



000
FTUS41 KPHI 300500
TAFMIV
TAF
KMIV 300528Z 3006/3106 VRB03KT 5SM BR SKC
      TEMPO 3007/3011 2SM BR BKN008
     FM301400 32006KT P6SM FEW050
     FM310300 VRB02KT P6SM SCT250=



000
FTUS41 KPHI 300500
TAFABE
TAF
KABE 300528Z 3006/3106 VRB03KT 1SM BR BKN003
      TEMPO 3006/3010 1/4SM FG BKN001
     FM301300 30004KT 3SM BR SCT005
      TEMPO 3013/3015 6SM BR
     FM301500 32008KT P6SM SCT050
     FM310300 VRB02KT P6SM SCT250=



000
FTUS41 KPHI 300400 AAA
TAFPHL
TAF AMD
KPHL 300433Z 3005/3106 32003KT 6SM BR SKC
      TEMPO 3006/3010 2SM BR BKN008
     FM301500 33010KT P6SM SCT050=



000
FTUS41 KPHI 300400 AAA
TAFPNE
TAF AMD
KPNE 300413Z 3004/3024 29003KT 3SM BR SKC
      TEMPO 3006/3010 1SM BR BKN005
     FM301500 34008KT P6SM SCT050=



000
FTUS41 KPHI 300400 AAA
TAFPNE
TAF AMD
KPNE 300413Z 3004/3024 29003KT 3SM BR SKC
      TEMPO 3006/3010 1SM BR BKN005
     FM301500 34008KT P6SM SCT050=



000
FTUS41 KPHI 300300 AAB
TAFTTN
TAF AMD
KTTN 300349Z 3004/3024 VRB03KT 1SM BR BKN004
      TEMPO 3004/3008 1/2SM FG BKN002
     FM300800 VRB03KT 3SM BR SCT005
      TEMPO 3008/3012 1SM BR BKN005
     FM301500 35008KT P6SM SCT050=



000
FTUS41 KPHI 300300 AAE
TAFRDG
TAF AMD
KRDG 300339Z 3004/3024 VRB03KT 1SM BR BKN004
      TEMPO 3004/3008 1/2SM FG BKN002
     FM300800 VRB03KT 3SM BR SCT005
      TEMPO 3008/3012 1SM BR BKN005
     FM301500 32008KT P6SM SCT050=



000
FTUS41 KPHI 300300 AAD
TAFABE
TAF AMD
KABE 300338Z 3004/3024 VRB03KT 1SM BR BKN003
      TEMPO 3004/3008 1/2SM FG BKN001
     FM300800 VRB03KT 3SM BR SCT005
      TEMPO 3008/3012 1SM BR BKN005
     FM301500 32008KT P6SM SCT050=



000
FTUS41 KPHI 300300 AAB
TAFILG
TAF AMD
KILG 300338Z 3004/3024 VRB03KT 1SM BR BKN004
      TEMPO 3004/3008 1/2SM FG BKN002
     FM300800 VRB03KT 3SM BR SCT005
      TEMPO 3008/3012 1SM BR BKN005
     FM301600 33010KT P6SM SCT050=



000
FTUS41 KPHI 300300 AAD
TAFRDG
TAF AMD
KRDG 300303Z 3003/3024 VRB02KT 3SM BR BKN070
      TEMPO 3003/3007 1SM BR BKN005
     FM301500 32008KT P6SM SCT050=



000
FTUS41 KPHI 300200 AAA
TAFTTN
TAF AMD
KTTN 300259Z 3003/3024 28003KT P6SM SCT100
      TEMPO 3003/3007 3SM BR
     FM301500 35008KT P6SM SCT050=



000
FTUS41 KPHI 300200 AAA
TAFILG
TAF AMD
KILG 300256Z 3003/3024 VRB03KT P6SM SCT100
      TEMPO 3003/3007 3SM BR
     FM301600 33010KT P6SM SCT050=



000
FTUS41 KPHI 300200 AAC
TAFABE
TAF AMD
KABE 300227Z 3002/3024 VRB03KT 2SM BR FEW005 SCT100
      TEMPO 3002/3006 1/2SM FG BKN005
     FM300600 VRB03KT P6SM SCT050
      TEMPO 3009/3012 5SM BR
     FM301500 32008KT P6SM SCT050=



000
FTUS41 KPHI 300100 AAB
TAFABE
TAF AMD
KABE 300142Z 3002/3024 VRB03KT 6SM BR FEW004 SCT100
      TEMPO 3002/3004 2SM BR SCT004 BKN050
     FM300400 VRB03KT P6SM SCT050
      TEMPO 3009/3012 5SM BR
     FM301500 32008KT P6SM SCT050=



000
FTUS41 KPHI 300100 AAC
TAFRDG
TAF AMD
KRDG 300123Z 3001/3024 VRB02KT P6SM SCT070
      TEMPO 3002/3004 2SM BR FEW003 BKN050
     FM300400 31004KT P6SM SCT050
      TEMPO 3008/3012 4SM BR
     FM301500 32008KT P6SM SCT050=



000
FTUS41 KPHI 300100 AAB
TAFRDG
TAF AMD
KRDG 300110Z 3001/3024 VRB02KT P6SM SCT100
      TEMPO 3002/3004 3SM BR FEW003
     FM300400 31004KT P6SM SCT100
      TEMPO 3008/3012 4SM BR
     FM301500 32008KT P6SM SCT050=



000
FTUS41 KPHI 300000 AAA
TAFABE
TAF AMD
KABE 300038Z 3001/3024 VRB03KT 6SM BR FEW004 SCT100
      TEMPO 3001/3003 2SM BR SCT004
     FM300300 VRB03KT P6SM SCT050
      TEMPO 3009/3012 5SM BR
     FM301500 32008KT P6SM SCT050=



000
FTUS41 KPHI 300000 AAA
TAFRDG
TAF AMD
KRDG 300002Z 3000/3024 VRB02KT 6SM BR FEW005 SCT100
      TEMPO 3000/3003 1SM BR SCT003
     FM300300 31004KT P6SM SCT100
      TEMPO 3008/3012 4SM BR
     FM301500 32008KT P6SM SCT050=



000
FTUS41 KPHI 292300
TAFILG
TAF
KILG 292322Z 3000/3024 30004KT P6SM BKN050 OVC080
     FM300300 30004KT P6SM SCT100
     FM301600 33010KT P6SM SCT050=



000
FTUS41 KPHI 292300
TAFABE
TAF
KABE 292322Z 3000/3024 28004KT P6SM SCT100
      TEMPO 3009/3012 5SM BR
     FM301500 32008KT P6SM SCT050=



000
FTUS41 KPHI 292300
TAFMIV
TAF
KMIV 292322Z 3000/3024 32005KT P6SM VCSH BKN040
     FM300200 VRB03KT P6SM SCT100
      TEMPO 3008/3011 4SM BR
     FM301100 32005KT P6SM FEW050
     FM301600 32008KT P6SM SCT050=



000
FTUS41 KPHI 292300
TAFACY
TAF
KACY 292322Z 3000/3024 32006KT P6SM VCSH BKN040
     FM300300 31003KT P6SM SCT100
     FM301500 34010KT P6SM SCT050=



000
FTUS41 KPHI 292300
TAFPNE
TAF
KPNE 292322Z 3000/3024 31004KT P6SM BKN050 OVC100
     FM300200 31004KT P6SM SCT100
     FM301500 34008KT P6SM SCT050=



000
FTUS41 KPHI 292300
TAFRDG
TAF
KRDG 292322Z 3000/3024 VRB02KT 6SM BR FEW005 SCT100
      TEMPO 3000/3003 3SM BR SCT003
     FM300300 31004KT P6SM SCT100
      TEMPO 3008/3012 4SM BR
     FM301500 32008KT P6SM SCT050=



000
FTUS41 KPHI 292300
TAFPHL
TAF
KPHL 292322Z 3000/3106 32005KT P6SM BKN050 OVC100
     FM300200 30005KT P6SM SCT100
     FM301500 33010KT P6SM SCT050=



000
FTUS41 KPHI 292300
TAFTTN
TAF
KTTN 292322Z 3000/3024 32004KT P6SM BKN050 OVC100
     FM300200 32004KT P6SM SCT100
     FM301500 35008KT P6SM SCT050=



000
FTUS41 KPHI 292300 AAA
TAFRDG
TAF AMD
KRDG 292304Z 2923/3018 VRB02KT P6SM SCT100
      TEMPO 2923/3003 1SM BR FEW004
     FM300300 30004KT P6SM SCT100
      TEMPO 3008/3012 5SM BR
     FM301600 32009KT P6SM SCT050=



000
FTUS41 KPHI 292300 AAA
TAFRDG
TAF AMD
KRDG 292304Z 2923/3018 VRB02KT P6SM SCT100
      TEMPO 2923/3003 1SM BR FEW004
     FM300300 30004KT P6SM SCT100
      TEMPO 3008/3012 5SM BR
     FM301600 32009KT P6SM SCT050=



000
FTUS41 KPHI 292000 AAB
TAFPHL
TAF AMD
KPHL 292038Z 2921/3024 32008KT P6SM -SHRA BKN040 OVC070
      TEMPO 2921/2922 6SM -SHRA OVC040
     FM292200 29006KT P6SM VCSH BKN080
     FM300200 30005KT P6SM SKC
     FM301500 33010KT P6SM SCT050=



000
FTUS41 KPHI 291900 AAA
TAFACY
TAF AMD
KACY 291907Z 2919/3018 31013KT P6SM BKN040 OVC045
     FM292200 31007KT 6SM -SHRA OVC040
     FM300300 32003KT P6SM BKN250
     FM300600 32003KT P6SM SKC
     FM301600 34008KT P6SM SCT050=



000
FTUS41 KPHI 291900 AAA
TAFMIV
TAF AMD
KMIV 291907Z 2919/3018 30011KT P6SM OVC045
     FM292100 30006KT 6SM -SHRA OVC040
     FM300200 30003KT P6SM BKN250
      TEMPO 3006/3010 4SM BR SCT250
     FM301000 32004KT P6SM SKC
     FM301600 33008KT P6SM SCT050=



000
FTUS41 KPHI 291800 AAA
TAFPNE
TAF AMD
KPNE 291807Z 2918/3018 32015G22KT P6SM OVC045
     FM292000 31008KT P6SM -SHRA OVC040
     FM292300 30005KT P6SM VCSH BKN080
     FM300200 30004KT P6SM SKC
     FM301500 34009KT P6SM SCT050=



000
FTUS41 KPHI 291800 AAA
TAFTTN
TAF AMD
KTTN 291807Z 2918/3018 31012G22KT P6SM OVC045
     FM292000 27008KT P6SM -SHRA OVC040
     FM292300 33007KT P6SM BKN080
     FM300200 33004KT P6SM SKC
     FM301500 35008KT P6SM SCT050=



000
FTUS41 KPHI 291800 AAA
TAFPHL
TAF AMD
KPHL 291807Z 2918/3024 33017G21KT P6SM FEW030 OVC045
     FM292000 30008KT P6SM -SHRA OVC040
     FM292300 29006KT P6SM VCSH BKN080
     FM300200 30005KT P6SM SKC
     FM301500 33010KT P6SM SCT050=



000
FTUS41 KPHI 291700 RRA
TAFACY
TAF
KACY 291742Z 2918/3018 27009KT P6SM SCT025 BKN035
      TEMPO 2918/2921 BKN025
     FM292100 29010KT P6SM VCSH BKN060 OVC250
     FM292200 31007KT 6SM -SHRA OVC040
     FM300300 32003KT P6SM BKN250
     FM300600 32003KT P6SM SKC
     FM301600 34008KT P6SM SCT050=



000
FTUS41 KPHI 291700 RRA
TAFRDG
TAF
KRDG 291742Z 2918/3018 30010KT P6SM -SHRA OVC040
      TEMPO 2918/2921 5SM SHRA BR BKN030
     FM292100 30005KT P6SM BKN060
     FM300100 30004KT P6SM SKC
      TEMPO 3009/3012 5SM BR
     FM301600 32009KT P6SM SCT050=



000
FTUS41 KPHI 291700 RRA
TAFMIV
TAF
KMIV 291742Z 2918/3018 29007KT P6SM SCT025
      TEMPO 2918/2920 BKN025
     FM292000 34009KT P6SM VCSH BKN060
     FM292100 30006KT 6SM -SHRA OVC040
     FM300200 30003KT P6SM BKN250
      TEMPO 3006/3010 4SM BR SCT250
     FM301000 32004KT P6SM SKC
     FM301600 33008KT P6SM SCT050=



000
FTUS41 KPHI 291700 RRA
TAFABE
TAF
KABE 291742Z 2918/3018 29009KT P6SM -SHRA OVC040
      TEMPO 2919/2921 5SM SHRA BR BKN030
     FM292100 30007KT P6SM BKN060
     FM300100 30004KT P6SM SKC
      TEMPO 3009/3012 5SM BR
     FM301600 32009KT P6SM SCT050=



000
FTUS41 KPHI 291700 RRA
TAFILG
TAF
KILG 291742Z 2918/3018 31010KT P6SM BKN040
     FM292000 30008KT P6SM -SHRA OVC040
     FM292300 31006KT P6SM VCSH BKN080
     FM300200 31004KT P6SM SKC
     FM301600 34008KT P6SM SCT050=



000
FTUS41 KPHI 291700 RRA
TAFPHL
TAF
KPHL 291742Z 2918/3024 30010KT P6SM BKN040
     FM292000 30008KT P6SM -SHRA OVC040
     FM292300 29006KT P6SM VCSH BKN080
     FM300200 30005KT P6SM SKC
     FM301500 33010KT P6SM SCT050=



000
FTUS41 KPHI 291700 RRA
TAFPNE
TAF
KPNE 291742Z 2918/3018 30011KT P6SM BKN040
     FM292000 31008KT P6SM -SHRA OVC040
     FM292300 30005KT P6SM VCSH BKN080
     FM300200 30004KT P6SM SKC
     FM301500 34009KT P6SM SCT050=



000
FTUS41 KPHI 291700 RRA
TAFTTN
TAF
KTTN 291742Z 2918/3018 31009KT P6SM BKN045
     FM292000 27008KT P6SM -SHRA OVC040
     FM292300 33007KT P6SM BKN080
     FM300200 33004KT P6SM SKC
     FM301500 35008KT P6SM SCT050=



000
FTUS41 KPHI 291600 AAA
TAFTTN
TAF AMD
KTTN 291621Z 2916/3012 30009G17KT P6SM BKN026 BKN070
      TEMPO 2916/2918 SCT026
     FM291800 30009KT P6SM VCSH BKN060 OVC250
     FM292000 27008KT 6SM -SHRA OVC040
     FM292300 28005KT P6SM SCT030 BKN080
     FM300300 30004KT P6SM FEW030=



000
FTUS41 KPHI 291500 AAA
TAFPHL
TAF AMD
KPHL 291523Z 2915/3018 25008KT P6SM BKN200
     FM291600 29010G17KT P6SM BKN200
     FM291900 29011KT P6SM VCSH BKN060 OVC250
     FM292000 29008KT 6SM -SHRA OVC040
     FM292300 26006KT P6SM BKN080
     FM300200 30005KT P6SM SKC
     FM301400 33010KT P6SM FEW050=



000
FTUS41 KPHI 291200 AAA
TAFPNE
TAF AMD
KPNE 291218Z 2912/3012 26003KT P6SM BKN250
     FM291300 26005KT P6SM BKN250
     FM291500 29006KT P6SM BKN100 OVC250
     FM291800 29009KT P6SM VCSH BKN060 OVC250
     FM292100 27008KT 6SM -SHRA OVC040
     FM292300 28005KT P6SM SCT030 BKN080
     FM300300 30004KT P6SM FEW030=



000
FTUS41 KPHI 291100
TAFABE
TAF
KABE 291123Z 2912/3012 32004KT P6SM BKN100 BKN250
     FM291500 29005KT P6SM VCSH BKN060 OVC250
     FM291700 28008KT 6SM -SHRA OVC040
     FM292000 25005KT P6SM SCT030 BKN100
     FM300100 28004KT P6SM FEW060=



000
FTUS41 KPHI 291100
TAFMIV
TAF
KMIV 291123Z 2912/3012 24005KT P6SM BKN250
     FM291600 28007KT P6SM BKN100
     FM291900 29008KT P6SM VCSH BKN060 OVC250
     FM292100 29006KT 6SM -SHRA OVC040
     FM300200 27005KT P6SM SCT030 BKN080
     FM300500 30003KT P6SM FEW030=



000
FTUS41 KPHI 291100
TAFPNE
TAF
KPNE 291123Z 2912/3012 26005KT 5SM BR BKN250
      TEMPO 2912/2913 2SM BR
     FM291300 26005KT P6SM BKN250
     FM291500 29006KT P6SM BKN100 OVC250
     FM291800 29009KT P6SM VCSH BKN060 OVC250
     FM292100 27008KT 6SM -SHRA OVC040
     FM292300 28005KT P6SM SCT030 BKN080
     FM300300 30004KT P6SM FEW030=



000
FTUS41 KPHI 291100
TAFRDG
TAF
KRDG 291123Z 2912/3012 30004KT P6SM BKN100 OVC250
     FM291400 30005KT P6SM VCSH BKN060 OVC250
     FM291600 29008KT 6SM -SHRA OVC040
     FM292000 26005KT P6SM SCT030 BKN100
     FM300100 30004KT P6SM FEW060=



000
FTUS41 KPHI 291100
TAFPHL
TAF
KPHL 291123Z 2912/3018 24006KT P6SM BKN250
     FM291500 28009KT P6SM BKN080 OVC250
     FM291900 29011KT P6SM VCSH BKN060 OVC250
     FM292100 29008KT 6SM -SHRA OVC040
     FM292300 26006KT P6SM SCT030 BKN080
     FM300300 30005KT P6SM FEW030
     FM301400 33010KT P6SM SKC=



000
FTUS41 KPHI 291100
TAFILG
TAF
KILG 291123Z 2912/3012 26006KT P6SM BKN250
     FM291500 29008KT P6SM BKN100
     FM291800 29011KT P6SM VCSH BKN060 OVC250
     FM292100 28008KT 6SM -SHRA OVC040
     FM292300 27006KT P6SM SCT030 BKN080
     FM300400 30004KT P6SM FEW030=



000
FTUS41 KPHI 291100
TAFTTN
TAF
KTTN 291123Z 2912/3012 00000KT 5SM BR BKN250
      TEMPO 2912/2913 2SM BR
     FM291300 27003KT P6SM OVC250
     FM291500 29005KT P6SM BKN100
     FM291800 30009KT P6SM VCSH BKN060 OVC250
     FM292000 27008KT 6SM -SHRA OVC040
     FM292300 28005KT P6SM SCT030 BKN080
     FM300300 30004KT P6SM FEW030=



000
FTUS41 KPHI 291100
TAFACY
TAF
KACY 291123Z 2912/3012 22009KT P6SM BKN250
     FM291700 26011KT P6SM BKN100
     FM292000 29010KT P6SM VCSH BKN060 OVC250
     FM292200 29007KT 6SM -SHRA OVC040
     FM300300 28005KT P6SM SCT030 BKN080
     FM300600 32003KT P6SM FEW030=



000
FTUS41 KPHI 290800 AAA
TAFPHL
TAF AMD
KPHL 290848Z 2909/3012 22006KT P6SM OVC250
     FM291500 26008KT P6SM BKN080 OVC250
     FM291900 29010KT P6SM VCSH BKN060 OVC250
     FM292100 29008KT 6SM -SHRA OVC040
     FM292300 27006KT P6SM SCT030 BKN080
     FM300300 30005KT P6SM FEW030=



000
FTUS41 KPHI 290800 AAA
TAFTTN
TAF AMD
KTTN 290842Z 2909/3006 00000KT 6SM BR OVC250
      TEMPO 2909/2911 3SM BR
     FM291400 27005KT P6SM BKN100
     FM291700 29009KT P6SM VCSH BKN060 OVC250
     FM292000 27008KT 6SM -SHRA OVC040
     FM292300 28005KT P6SM SCT030 BKN080
     FM300300 30004KT P6SM FEW030=



000
FTUS41 KPHI 290500 RRA
TAFILG
TAF
KILG 290542Z 2906/3006 20004KT P6SM OVC250 WS017/25035KT
     FM290700 22004KT P6SM OVC250
     FM291400 26007KT P6SM BKN100
     FM291700 29010KT P6SM VCSH BKN060 OVC250
     FM292000 28008KT 6SM -SHRA OVC040
     FM292300 27006KT P6SM SCT030 BKN080
     FM300400 30004KT P6SM FEW030=



000
FTUS41 KPHI 290500 RRA
TAFPNE
TAF
KPNE 290542Z 2906/3006 21005KT P6SM BKN250 WS017/25040KT
     FM290800 23003KT P6SM OVC250
     FM291400 26005KT P6SM BKN100
     FM291700 28009KT P6SM VCSH BKN060 OVC250
     FM292000 27008KT 6SM -SHRA OVC040
     FM292300 28005KT P6SM SCT030 BKN080
     FM300300 30004KT P6SM FEW030=



000
FTUS41 KPHI 290500 RRA
TAFABE
TAF
KABE 290542Z 2906/3006 VRB03KT P6SM SCT100 BKN250
     FM291400 26005KT P6SM VCSH BKN060 OVC250
     FM291600 28008KT 6SM -SHRA OVC040
     FM292000 25005KT P6SM SCT030 BKN100
     FM300100 28004KT P6SM FEW060=



000
FTUS41 KPHI 290500 RRA
TAFTTN
TAF
KTTN 290542Z 2906/3006 VRB03KT P6SM BKN250 WS017/25040KT
     FM290800 VRB03KT 6SM BR OVC250
     FM291400 27005KT P6SM BKN100
     FM291700 29009KT P6SM VCSH BKN060 OVC250
     FM292000 27008KT 6SM -SHRA OVC040
     FM292300 28005KT P6SM SCT030 BKN080
     FM300300 30004KT P6SM FEW030=



000
FTUS41 KPHI 290500 RRA
TAFACY
TAF
KACY 290542Z 2906/3006 19005KT P6SM OVC250 WS017/24040KT
     FM290800 21006KT P6SM OVC250
     FM291400 25011KT P6SM BKN100
     FM292000 28010KT P6SM VCSH BKN060 OVC250
     FM292200 29007KT 6SM -SHRA OVC040
     FM300200 28005KT P6SM SCT030 BKN080
     FM300500 32003KT P6SM FEW030=



000
FTUS41 KPHI 290500 RRA
TAFRDG
TAF
KRDG 290542Z 2906/3006 VRB03KT P6SM SCT100 BKN250
     FM291300 30005KT P6SM VCSH BKN060 OVC250
     FM291500 29008KT 6SM -SHRA OVC040
     FM292000 26005KT P6SM SCT030 BKN100
     FM300100 29004KT P6SM FEW060=



000
FTUS41 KPHI 290500 RRA
TAFMIV
TAF
KMIV 290542Z 2906/3006 00000KT P6SM OVC250 WS017/24036KT
     FM290800 VRB03KT P6SM OVC250
     FM291400 25005KT P6SM BKN100
     FM291900 28008KT P6SM VCSH BKN060 OVC250
     FM292100 29006KT 6SM -SHRA OVC040
     FM300100 28005KT P6SM SCT030 BKN080
     FM300500 30003KT P6SM FEW030=



000
FTUS41 KPHI 290500 RRA
TAFPHL
TAF
KPHL 290542Z 2906/3012 20006KT P6SM OVC250 WS017/25039KT
     FM290800 23005KT P6SM OVC250
     FM291400 26008KT P6SM BKN100
     FM291700 29010KT P6SM VCSH BKN060 OVC250
     FM292000 29008KT 6SM -SHRA OVC040
     FM292300 27006KT P6SM SCT030 BKN080
     FM300300 30005KT P6SM FEW030=



000
FTUS41 KPHI 282300
TAFTTN
TAF
KTTN 282321Z 2900/2924 19004KT P6SM OVC250
     FM290200 VRB03KT P6SM OVC250 WS020/23035KT
     FM290800 VRB03KT 3SM BR OVC250
     FM291400 27006KT P6SM OVC100
     FM291600 28006KT P6SM -SHRA OVC050
     FM292200 29004KT P6SM BKN100=



000
FTUS41 KPHI 282300
TAFPNE
TAF
KPNE 282321Z 2900/2924 19004KT P6SM OVC250
     FM290200 22004KT P6SM OVC250 WS020/23035KT
     FM290800 VRB03KT P6SM OVC250
      TEMPO 2909/2913 4SM BR
     FM291400 27006KT P6SM OVC100
     FM291600 28008KT P6SM -SHRA OVC050
     FM292200 29004KT P6SM BKN100=



000
FTUS41 KPHI 282300
TAFABE
TAF
KABE 282321Z 2900/2924 VRB03KT P6SM OVC250 WS020/23035KT
     FM290600 VRB03KT P6SM OVC250
     FM291000 VRB03KT 4SM -SHRA BR SCT015 OVC040
     FM291400 27006KT P6SM -SHRA OVC040
     FM292000 28004KT P6SM BKN100=



000
FTUS41 KPHI 282300
TAFRDG
TAF
KRDG 282321Z 2900/2924 VRB03KT P6SM OVC250 WS020/23035KT
     FM290600 VRB03KT P6SM OVC250
     FM290900 VRB03KT 4SM -SHRA BR SCT015 OVC040
     FM291300 29006KT P6SM -SHRA OVC040
     FM292000 29004KT P6SM BKN100=



000
FTUS41 KPHI 282300
TAFILG
TAF
KILG 282321Z 2900/2924 17006KT P6SM OVC250
     FM290200 20004KT P6SM OVC250 WS020/23035KT
     FM290800 VRB03KT P6SM OVC250
      TEMPO 2909/2913 5SM BR
     FM291400 27008KT P6SM OVC100
     FM291600 28008KT P6SM -SHRA OVC050
     FM292200 29004KT P6SM BKN100=



000
FTUS41 KPHI 282300
TAFPHL
TAF
KPHL 282321Z 2900/3006 19006KT P6SM OVC250
     FM290200 22006KT P6SM OVC250 WS020/23035KT
     FM290800 23004KT P6SM OVC250
      TEMPO 2909/2913 5SM BR
     FM291400 26008KT P6SM OVC100
     FM291600 28008KT P6SM -SHRA OVC050
     FM292200 29006KT P6SM BKN100=



000
FTUS41 KPHI 282300
TAFACY
TAF
KACY 282321Z 2900/2924 20006KT P6SM OVC250
     FM290200 21006KT P6SM OVC250 WS020/23035KT
     FM290800 22004KT P6SM OVC250
      TEMPO 2909/2913 5SM BR
     FM291500 25008KT P6SM OVC100
     FM291900 29008KT P6SM -SHRA OVC050=



000
FTUS41 KPHI 282300
TAFMIV
TAF
KMIV 282321Z 2900/2924 VRB03KT P6SM OVC250
     FM290200 VRB03KT P6SM OVC250 WS020/23035KT
     FM290800 VRB03KT 4SM BR OVC250
     FM291400 27008KT P6SM OVC100
     FM291900 29006KT P6SM -SHRA OVC050=



000
FTUS41 KPHI 282100 AAA
TAFPHL
TAF AMD
KPHL 282100Z 2821/2924 19008KT P6SM BKN250
     FM290600 22004KT P6SM SCT040 BKN200
      TEMPO 2909/2913 4SM BR BKN040
     FM291400 27010KT P6SM BKN035
     FM291800 28009KT 6SM -SHRA OVC040
     FM292100 27008KT P6SM BKN080=



000
FTUS41 KPHI 281700
TAFMIV
TAF
KMIV 281720Z 2818/2918 18004KT P6SM BKN250
     FM290200 VRB03KT P6SM BKN200
     FM290900 21003KT 3SM BR SCT040 BKN200
     FM291300 24004KT P6SM BKN035
     FM291600 28010KT P6SM BKN040=



000
FTUS41 KPHI 281700
TAFACY
TAF
KACY 281720Z 2818/2918 20007KT P6SM BKN200
     FM291300 25008KT P6SM SCT035 BKN200
     FM291600 28010KT P6SM BKN040=



000
FTUS41 KPHI 281700
TAFABE
TAF
KABE 281720Z 2818/2918 20005KT P6SM BKN250
     FM290000 00000KT P6SM SCT080 BKN200 WS010/22035KT
     FM290800 VRB02KT 3SM BR BKN030
     FM291400 27005KT 6SM -SHRA OVC035
     FM291700 27008KT P6SM BKN080=



000
FTUS41 KPHI 281700
TAFPNE
TAF
KPNE 281720Z 2818/2918 21006KT P6SM BKN250
     FM290600 19002KT P6SM SCT080 BKN200
     FM290900 VRB02KT 3SM BR BKN030
     FM291400 26005KT P6SM BKN030
     FM291700 27008KT 6SM -SHRA OVC040=



000
FTUS41 KPHI 281700
TAFTTN
TAF
KTTN 281720Z 2818/2918 20006KT P6SM BKN250
     FM290600 19002KT 6SM BR SCT080 BKN200
     FM290900 VRB02KT 1SM BR BKN009
     FM291400 26005KT P6SM BKN030
     FM291600 27008KT 6SM -SHRA BKN040=



000
FTUS41 KPHI 281700
TAFRDG
TAF
KRDG 281720Z 2818/2918 20005KT P6SM BKN250
     FM290000 00000KT P6SM SCT080 BKN200 WS010/22035KT
     FM290800 VRB02KT 4SM BR BKN030
     FM291400 29005KT 6SM -SHRA OVC035
     FM291700 29008KT P6SM BKN080=



000
FTUS41 KPHI 281700
TAFILG
TAF
KILG 281720Z 2818/2918 18006KT P6SM BKN250
     FM290600 20003KT P6SM SCT040 BKN200
     FM290900 21003KT 3SM BR BKN040
     FM291300 24004KT P6SM BKN035
     FM291500 28010KT P6SM BKN040=



000
FTUS41 KPHI 281700
TAFPHL
TAF
KPHL 281720Z 2818/2924 21008KT P6SM BKN250
     FM290600 22004KT P6SM SCT040 BKN200
      TEMPO 2909/2913 4SM BR BKN040
     FM291400 27010KT P6SM BKN035
     FM291800 28009KT 6SM -SHRA OVC040
     FM292100 27008KT P6SM BKN080=



000
FTUS41 KPHI 281400 AAA
TAFPHL
TAF AMD
KPHL 281441Z 2815/2918 22009KT P6SM BKN250
     FM290600 23005KT P6SM SCT060 BKN250
     FM291500 26010KT P6SM SCT030 OVC050=



    US Dept of Commerce
    National Oceanic and Atmospheric Administration
    National Weather Service
    1325 East West Highway
    Silver Spring, MD 20910
    Page Author: NWS Internet Services Team
Disclaimer
Information Quality
Credits
Glossary
Privacy Policy
Freedom of Information Act (FOIA)
About Us
Career Opportunities